Time;durP1;ratioP1;P1;durP2;ratioP2;P2;SDS_P1;SDS_P2;PMS_P1;PMS_P2;Temp;Humidity;BMP_temperature;BMP_pressure;BME280_temperature;BME280_humidity;BME280_pressure;Samples;Min_cycle;Max_cycle;Signal;HPM_P1;HPM_P2
2021/04/16 00:00:56;;;;;;;19.33;9.07;;;;;;;;;;8294667;28;20372;-75
2021/04/16 00:05:01;;;;;;;23.52;10.10;;;;;;;;;;8274009;28;20478;-75
2021/04/16 00:09:06;;;;;;;28.60;9.23;;;;;;;;;;8291257;28;20075;-74
2021/04/16 00:13:13;;;;;;;23.30;9.50;;;;;;;;;;8274303;28;20056;-74
2021/04/16 00:17:17;;;;;;;20.02;8.77;;;;;;;;;;8291171;28;20368;-74
2021/04/16 00:21:22;;;;;;;32.65;10.02;;;;;;;;;;8291906;28;20367;-74
2021/04/16 00:25:30;;;;;;;24.08;8.70;;;;;;;;;;8292043;28;20456;-74
2021/04/16 00:29:34;;;;;;;31.60;9.85;;;;;;;;;;8291163;28;20384;-74
2021/04/16 00:33:38;;;;;;;42.30;9.77;;;;;;;;;;8273710;28;20355;-74
2021/04/16 00:37:43;;;;;;;16.85;9.10;;;;;;;;;;8291149;28;20075;-74
2021/04/16 00:41:48;;;;;;;23.75;10.35;;;;;;;;;;8292796;28;20597;-74
2021/04/16 00:46:28;;;;;;;17.58;9.70;;;;;;;;;;8290175;28;20471;-75
2021/04/16 00:50:46;;;;;;;28.98;9.30;;;;;;;;;;8282330;28;20052;-75
2021/04/16 00:54:50;;;;;;;23.43;8.47;;;;;;;;;;8275083;28;20109;-74
2021/04/16 00:58:55;;;;;;;19.10;8.55;;;;;;;;;;8273891;28;20375;-74
2021/04/16 01:03:01;;;;;;;24.52;10.45;;;;;;;;;;8282969;28;20389;-75
2021/04/16 01:07:08;;;;;;;23.23;8.75;;;;;;;;;;8259092;28;20498;-75
2021/04/16 01:11:12;;;;;;;18.48;9.80;;;;;;;;;;8239949;28;20468;-74
2021/04/16 01:15:29;;;;;;;20.80;8.93;;;;;;;;;;8240290;28;20467;-75
2021/04/16 01:19:49;;;;;;;16.88;8.18;;;;;;;;;;8241119;28;20487;-75
2021/04/16 01:24:12;;;;;;;24.65;8.52;;;;;;;;;;8258002;28;20345;-74
2021/04/16 01:28:17;;;;;;;16.20;7.45;;;;;;;;;;8241458;28;20071;-75
2021/04/16 01:32:31;;;;;;;11.80;7.55;;;;;;;;;;8240642;28;20525;-75
2021/04/16 01:36:35;;;;;;;12.20;7.82;;;;;;;;;;8240730;28;20403;-75
2021/04/16 01:40:40;;;;;;;14.70;7.63;;;;;;;;;;8255812;28;20444;-75
2021/04/16 01:44:45;;;;;;;16.23;7.38;;;;;;;;;;8257250;28;20403;-75
2021/04/16 01:48:58;;;;;;;15.15;7.88;;;;;;;;;;8239580;28;20380;-75
2021/04/16 01:53:04;;;;;;;13.93;7.00;;;;;;;;;;8256740;28;20463;-76
2021/04/16 01:57:19;;;;;;;15.50;8.32;;;;;;;;;;8256798;28;20479;-75
2021/04/16 02:01:22;;;;;;;12.82;7.55;;;;;;;;;;8256365;28;20053;-75
2021/04/16 02:05:27;;;;;;;11.32;6.55;;;;;;;;;;8258129;28;20071;-76
2021/04/16 02:09:35;;;;;;;12.02;6.30;;;;;;;;;;8262626;28;20063;-75
2021/04/16 02:13:40;;;;;;;15.53;6.83;;;;;;;;;;8245123;28;20484;-75
2021/04/16 02:17:44;;;;;;;9.70;5.57;;;;;;;;;;8260883;28;20052;-75
2021/04/16 02:21:49;;;;;;;10.63;5.90;;;;;;;;;;8246092;28;20448;-75
2021/04/16 02:25:54;;;;;;;9.13;5.85;;;;;;;;;;8244766;28;20380;-75
2021/04/16 02:29:58;;;;;;;9.50;5.00;;;;;;;;;;8262861;28;20456;-75
2021/04/16 02:34:03;;;;;;;11.68;5.57;;;;;;;;;;8262356;28;20056;-74
2021/04/16 02:38:07;;;;;;;8.50;5.20;;;;;;;;;;8245346;28;20452;-75
2021/04/16 02:42:12;;;;;;;10.70;5.75;;;;;;;;;;8262603;28;20444;-74
2021/04/16 02:46:18;;;;;;;11.32;5.53;;;;;;;;;;8263367;28;20079;-74
2021/04/16 02:50:28;;;;;;;9.75;4.70;;;;;;;;;;8262099;28;20065;-74
2021/04/16 02:54:32;;;;;;;7.88;5.05;;;;;;;;;;8261539;28;20049;-74
2021/04/16 02:58:36;;;;;;;9.18;5.28;;;;;;;;;;8259836;28;20502;-75
2021/04/16 03:02:40;;;;;;;7.90;5.13;;;;;;;;;;8262204;28;20482;-74
2021/04/16 03:06:45;;;;;;;6.47;4.35;;;;;;;;;;8263307;28;20360;-75
2021/04/16 03:10:51;;;;;;;9.13;4.65;;;;;;;;;;8261623;28;20368;-75
2021/04/16 03:14:55;;;;;;;6.68;3.85;;;;;;;;;;8262475;28;20480;-74
2021/04/16 03:19:03;;;;;;;6.13;3.92;;;;;;;;;;8260449;28;20356;-75
2021/04/16 03:23:07;;;;;;;8.23;4.40;;;;;;;;;;8241939;28;20337;-74
2021/04/16 03:27:11;;;;;;;7.35;4.22;;;;;;;;;;8260792;28;20448;-75
2021/04/16 03:31:16;;;;;;;6.78;4.35;;;;;;;;;;8261698;28;20472;-75
2021/04/16 03:35:21;;;;;;;6.18;4.13;;;;;;;;;;8261995;28;20472;-75
2021/04/16 03:39:26;;;;;;;7.93;5.45;;;;;;;;;;8260045;28;20383;-75
2021/04/16 03:43:30;;;;;;;7.50;4.30;;;;;;;;;;8260271;28;20398;-75
2021/04/16 03:47:36;;;;;;;7.13;4.00;;;;;;;;;;8259412;28;20334;-74
2021/04/16 03:52:00;;;;;;;6.65;3.95;;;;;;;;;;8260309;28;20349;-74
2021/04/16 03:56:07;;;;;;;8.40;4.18;;;;;;;;;;8258939;28;20052;-75
2021/04/16 04:00:18;;;;;;;7.88;4.40;;;;;;;;;;8259403;28;20053;-74
2021/04/16 04:04:23;;;;;;;9.57;4.53;;;;;;;;;;8242330;28;20469;-74
2021/04/16 04:08:27;;;;;;;7.00;4.65;;;;;;;;;;8241780;28;20468;-75
2021/04/16 04:12:31;;;;;;;7.45;4.50;;;;;;;;;;8258654;28;20360;-75
2021/04/16 04:17:00;;;;;;;8.45;5.47;;;;;;;;;;8259927;28;20453;-75
2021/04/16 04:21:05;;;;;;;11.10;6.47;;;;;;;;;;8258948;28;20422;-74
2021/04/16 04:25:12;;;;;;;12.85;8.07;;;;;;;;;;8258572;28;20372;-74
2021/04/16 04:29:21;;;;;;;8.50;5.15;;;;;;;;;;8240443;28;20462;-75
2021/04/16 04:33:26;;;;;;;9.18;5.82;;;;;;;;;;8259661;28;20458;-75
2021/04/16 04:37:31;;;;;;;8.57;5.63;;;;;;;;;;8257793;28;20396;-75
2021/04/16 04:41:36;;;;;;;8.55;5.85;;;;;;;;;;8240074;28;20379;-75
2021/04/16 04:45:40;;;;;;;10.18;5.80;;;;;;;;;;8257594;28;20460;-76
2021/04/16 04:49:44;;;;;;;7.60;5.28;;;;;;;;;;8258398;28;20472;-75
2021/04/16 04:53:49;;;;;;;8.30;5.50;;;;;;;;;;8240610;28;20499;-75
2021/04/16 04:57:54;;;;;;;9.20;5.93;;;;;;;;;;8257196;28;20464;-75
2021/04/16 05:01:58;;;;;;;12.75;5.70;;;;;;;;;;8239961;28;20471;-75
2021/04/16 05:06:04;;;;;;;7.10;4.40;;;;;;;;;;8258050;28;20517;-75
2021/04/16 05:10:10;;;;;;;10.00;6.18;;;;;;;;;;8258977;28;20452;-74
2021/04/16 05:14:14;;;;;;;8.23;5.50;;;;;;;;;;8257597;28;20072;-75
2021/04/16 05:18:18;;;;;;;10.43;5.32;;;;;;;;;;8257930;28;20467;-74
2021/04/16 05:22:23;;;;;;;9.60;5.57;;;;;;;;;;8256561;28;20456;-74
2021/04/16 05:26:28;;;;;;;13.80;7.30;;;;;;;;;;8258205;28;20472;-73
2021/04/16 05:30:33;;;;;;;13.25;7.07;;;;;;;;;;8256066;28;20045;-74
2021/04/16 05:34:37;;;;;;;22.75;11.88;;;;;;;;;;8239881;28;20460;-74
2021/04/16 05:38:41;;;;;;;24.20;10.73;;;;;;;;;;8257182;28;20467;-75
2021/04/16 05:42:46;;;;;;;26.13;12.68;;;;;;;;;;8262142;28;20049;-74
2021/04/16 05:46:51;;;;;;;30.50;15.75;;;;;;;;;;8262673;28;20452;-74
2021/04/16 05:50:55;;;;;;;14.80;8.75;;;;;;;;;;8265252;28;20379;-74
2021/04/16 05:55:00;;;;;;;15.02;8.38;;;;;;;;;;8263520;28;20348;-75
2021/04/16 05:59:04;;;;;;;15.57;9.05;;;;;;;;;;8262280;28;20480;-74
2021/04/16 06:03:10;;;;;;;13.52;8.02;;;;;;;;;;8245433;28;20483;-75
2021/04/16 06:07:14;;;;;;;11.68;7.82;;;;;;;;;;8263907;28;20420;-74
2021/04/16 06:11:19;;;;;;;12.38;7.85;;;;;;;;;;8244335;28;20379;-74
2021/04/16 06:15:26;;;;;;;12.68;7.68;;;;;;;;;;8244847;28;20407;-74
2021/04/16 06:19:31;;;;;;;15.67;8.20;;;;;;;;;;8260786;28;20346;-75
2021/04/16 06:23:39;;;;;;;11.35;7.95;;;;;;;;;;8246667;28;20048;-75
2021/04/16 06:27:43;;;;;;;13.50;7.78;;;;;;;;;;8261593;28;20379;-74
2021/04/16 06:31:47;;;;;;;12.05;7.45;;;;;;;;;;8264848;28;20440;-75
2021/04/16 06:36:01;;;;;;;12.15;7.68;;;;;;;;;;8264704;28;20498;-74
2021/04/16 06:40:08;;;;;;;13.15;7.50;;;;;;;;;;8261392;28;20459;-75
2021/04/16 06:44:34;;;;;;;14.98;10.05;;;;;;;;;;8261592;28;20380;-75
2021/04/16 06:48:40;;;;;;;12.60;8.52;;;;;;;;;;8243934;28;20053;-74
2021/04/16 06:53:48;;;;;;;13.50;7.85;;;;;;;;;;8241616;28;20456;-74
2021/04/16 06:58:00;;;;;;;12.80;7.07;;;;;;;;;;8261282;28;20452;-75
2021/04/16 07:02:11;;;;;;;17.13;8.15;;;;;;;;;;8261141;28;20456;-74
2021/04/16 07:06:42;;;;;;;10.55;6.05;;;;;;;;;;8244923;28;20464;-74
2021/04/16 07:10:47;;;;;;;14.85;7.18;;;;;;;;;;8258210;28;20060;-74
2021/04/16 07:15:03;;;;;;;37.38;12.10;;;;;;;;;;8241844;28;20478;-75
2021/04/16 07:19:18;;;;;;;17.77;8.50;;;;;;;;;;8262130;28;20424;-74
2021/04/16 07:23:22;;;;;;;14.10;7.55;;;;;;;;;;8261148;28;20449;-74
2021/04/16 07:27:51;;;;;;;10.10;6.30;;;;;;;;;;8243955;28;20387;-75
2021/04/16 07:31:58;;;;;;;12.43;5.75;;;;;;;;;;8261151;28;20460;-74
2021/04/16 07:36:29;;;;;;;10.73;6.50;;;;;;;;;;8261697;28;20411;-74
2021/04/16 07:40:42;;;;;;;10.50;6.35;;;;;;;;;;8257449;28;20383;-74
2021/04/16 07:45:16;;;;;;;12.40;6.32;;;;;;;;;;8242978;28;20368;-74
2021/04/16 07:50:00;;;;;;;12.77;7.22;;;;;;;;;;8259411;28;20357;-74
2021/04/16 07:54:20;;;;;;;14.45;6.78;;;;;;;;;;8221708;28;20503;-74
2021/04/16 07:58:26;;;;;;;10.68;5.47;;;;;;;;;;8257941;28;20061;-74
2021/04/16 08:02:41;;;;;;;8.45;6.18;;;;;;;;;;8239913;28;20057;-73
2021/04/16 08:06:54;;;;;;;10.35;5.80;;;;;;;;;;8242251;28;20345;-75
2021/04/16 08:11:04;;;;;;;10.80;6.38;;;;;;;;;;8240898;28;20048;-74
2021/04/16 08:15:28;;;;;;;9.45;5.22;;;;;;;;;;8259835;28;20387;-75
2021/04/16 08:19:42;;;;;;;18.52;8.55;;;;;;;;;;8258821;28;20346;-75
2021/04/16 08:24:28;;;;;;;14.27;6.55;;;;;;;;;;8258708;28;20373;-74
2021/04/16 08:28:59;;;;;;;12.68;6.85;;;;;;;;;;8232606;28;20369;-73
2021/04/16 08:33:21;;;;;;;10.75;5.90;;;;;;;;;;8258666;28;20415;-74
2021/04/16 08:37:39;;;;;;;12.93;7.47;;;;;;;;;;8256626;28;20353;-74
2021/04/16 08:41:57;;;;;;;16.02;7.53;;;;;;;;;;8242849;28;20407;-75
2021/04/16 08:46:14;;;;;;;9.15;5.63;;;;;;;;;;8241915;28;20401;-73
2021/04/16 08:50:28;;;;;;;10.45;5.43;;;;;;;;;;8243033;28;20372;-74
2021/04/16 08:54:37;;;;;;;21.80;9.40;;;;;;;;;;8240416;28;20379;-74
2021/04/16 08:58:44;;;;;;;12.50;6.88;;;;;;;;;;8258893;28;20394;-74
2021/04/16 09:03:17;;;;;;;8.15;5.43;;;;;;;;;;8243904;28;20503;-74
2021/04/16 09:07:39;;;;;;;9.63;6.25;;;;;;;;;;8240682;28;20464;-73
2021/04/16 09:11:44;;;;;;;10.25;5.43;;;;;;;;;;8241014;28;20079;-74
2021/04/16 09:15:51;;;;;;;12.48;6.97;;;;;;;;;;8260166;28;20444;-75
2021/04/16 09:20:00;;;;;;;10.65;6.05;;;;;;;;;;8262407;28;20112;-76
2021/04/16 09:24:13;;;;;;;13.23;7.03;;;;;;;;;;8246091;28;20061;-73
2021/04/16 09:28:22;;;;;;;10.90;6.97;;;;;;;;;;8265675;28;20374;-74
2021/04/16 09:32:35;;;;;;;10.68;6.40;;;;;;;;;;8261885;28;20474;-73
2021/04/16 09:36:48;;;;;;;12.95;6.20;;;;;;;;;;8263469;28;20491;-76
2021/04/16 09:41:22;;;;;;;13.40;7.45;;;;;;;;;;8262374;28;20609;-74
2021/04/16 09:45:29;;;;;;;12.70;6.57;;;;;;;;;;8264169;28;20403;-76
2021/04/16 09:49:56;;;;;;;13.73;6.40;;;;;;;;;;8263053;28;20503;-76
2021/04/16 09:54:13;;;;;;;11.20;6.13;;;;;;;;;;8248760;28;20477;-76
2021/04/16 09:58:30;;;;;;;9.98;6.28;;;;;;;;;;8261976;28;20479;-76
2021/04/16 10:02:38;;;;;;;14.60;7.13;;;;;;;;;;8262747;28;20476;-75
2021/04/16 10:06:45;;;;;;;13.83;7.07;;;;;;;;;;8245763;28;20048;-76
2021/04/16 10:10:53;;;;;;;18.65;9.32;;;;;;;;;;8263431;28;20467;-76
2021/04/16 10:14:58;;;;;;;8.80;5.93;;;;;;;;;;8261021;28;20493;-76
2021/04/16 10:19:15;;;;;;;11.50;6.57;;;;;;;;;;8262366;28;20362;-76
2021/04/16 10:23:41;;;;;;;11.30;6.28;;;;;;;;;;8261608;28;20387;-75
2021/04/16 12:38:27;;;;;;;25.05;11.45;;;;;;;;;;8241668;28;20499;-76
2021/04/16 12:42:32;;;;;;;11.88;6.40;;;;;;;;;;8257759;28;20475;-78
2021/04/16 12:46:38;;;;;;;13.65;7.40;;;;;;;;;;8241365;28;20375;-77
2021/04/16 12:50:43;;;;;;;22.17;10.40;;;;;;;;;;8257598;28;20376;-76
2021/04/16 12:54:49;;;;;;;30.33;12.70;;;;;;;;;;8223942;28;20329;-76
2021/04/16 12:59:02;;;;;;;20.35;8.82;;;;;;;;;;8257760;28;20349;-76
2021/04/16 13:03:24;;;;;;;38.63;13.15;;;;;;;;;;8241103;28;20041;-76
2021/04/16 13:07:28;;;;;;;35.60;12.23;;;;;;;;;;8240307;28;20329;-75
2021/04/16 13:11:33;;;;;;;19.92;9.60;;;;;;;;;;8239780;28;20448;-76
2021/04/16 13:15:36;;;;;;;20.17;8.65;;;;;;;;;;8256838;28;20052;-77
2021/04/16 13:19:43;;;;;;;16.92;8.40;;;;;;;;;;8256646;28;20483;-76
2021/04/16 13:23:47;;;;;;;33.30;14.88;;;;;;;;;;8224454;28;20391;-76
2021/04/16 13:27:53;;;;;;;18.67;8.80;;;;;;;;;;8258841;28;20375;-76
2021/04/16 13:31:57;;;;;;;20.75;10.15;;;;;;;;;;8239716;28;20453;-76
2021/04/16 13:36:02;;;;;;;13.55;6.82;;;;;;;;;;8258625;28;20049;-76
2021/04/16 13:40:07;;;;;;;15.48;6.93;;;;;;;;;;8256633;28;20452;-77
2021/04/16 13:44:11;;;;;;;16.40;7.30;;;;;;;;;;8256855;28;20382;-76
2021/04/16 13:48:17;;;;;;;13.80;7.35;;;;;;;;;;8258660;28;20368;-75
2021/04/16 13:52:20;;;;;;;12.95;7.30;;;;;;;;;;8258139;28;20048;-76
2021/04/16 13:56:24;;;;;;;20.85;8.35;;;;;;;;;;8256059;28;20460;-76
2021/04/16 14:00:32;;;;;;;28.55;12.77;;;;;;;;;;8256752;28;20057;-77
2021/04/16 14:04:40;;;;;;;19.50;9.07;;;;;;;;;;8243964;28;20380;-76
2021/04/16 14:08:59;;;;;;;28.25;13.23;;;;;;;;;;8245949;28;20364;-76
2021/04/16 14:13:04;;;;;;;16.38;9.95;;;;;;;;;;8261842;28;20044;-76
2021/04/16 14:17:19;;;;;;;18.27;8.45;;;;;;;;;;8261851;28;20368;-76
2021/04/16 14:21:25;;;;;;;19.38;9.43;;;;;;;;;;8262992;28;20444;-76
2021/04/16 14:25:37;;;;;;;13.93;8.13;;;;;;;;;;8262871;28;20314;-76
2021/04/16 14:29:42;;;;;;;18.35;9.55;;;;;;;;;;8261398;28;20350;-77
2021/04/16 14:33:48;;;;;;;16.13;8.15;;;;;;;;;;8261582;28;20083;-77
2021/04/16 14:38:12;;;;;;;13.52;8.45;;;;;;;;;;8261386;28;20065;-76
2021/04/16 14:42:17;;;;;;;15.48;8.85;;;;;;;;;;8263223;28;20372;-76
2021/04/16 14:46:24;;;;;;;25.75;13.30;;;;;;;;;;8263179;28;20456;-76
2021/04/16 14:50:30;;;;;;;13.05;7.22;;;;;;;;;;8264719;28;20475;-76
2021/04/16 14:54:46;;;;;;;15.48;8.18;;;;;;;;;;8260681;28;20464;-76
2021/04/16 14:59:01;;;;;;;14.40;8.52;;;;;;;;;;8244210;28;20057;-76
2021/04/16 15:03:07;;;;;;;14.57;6.55;;;;;;;;;;8244950;28;20341;-76
2021/04/16 15:07:19;;;;;;;14.00;7.72;;;;;;;;;;8260532;28;20078;-77
2021/04/16 15:11:43;;;;;;;12.68;6.43;;;;;;;;;;8261569;28;20363;-77
2021/04/16 15:15:47;;;;;;;10.70;6.28;;;;;;;;;;8228151;28;20053;-76
2021/04/16 15:19:55;;;;;;;14.75;6.95;;;;;;;;;;8242759;28;20491;-76
2021/04/16 15:24:00;;;;;;;22.95;10.95;;;;;;;;;;8260090;28;20376;-76
2021/04/16 15:28:19;;;;;;;19.58;10.80;;;;;;;;;;8260483;28;20053;-76
2021/04/16 15:32:32;;;;;;;16.02;8.32;;;;;;;;;;8224715;28;20071;-76
2021/04/16 15:49:54;;;;;;;17.25;8.18;;;;;;;;;;8259184;28;20411;-76
2021/04/16 15:53:59;;;;;;;17.95;9.18;;;;;;;;;;8260135;28;20476;-76
2021/04/16 15:58:06;;;;;;;16.17;9.15;;;;;;;;;;8261073;28;20391;-76
2021/04/16 16:02:16;;;;;;;17.27;9.88;;;;;;;;;;8241983;28;20683;-75
2021/04/16 16:06:22;;;;;;;16.70;8.90;;;;;;;;;;8260148;28;20431;-76
2021/04/16 16:10:29;;;;;;;20.60;10.25;;;;;;;;;;8259945;28;20478;-76
2021/04/16 16:14:40;;;;;;;15.88;9.07;;;;;;;;;;8242491;28;20482;-76
2021/04/16 16:18:48;;;;;;;16.77;9.88;;;;;;;;;;8258494;28;20477;-75
2021/04/16 16:22:54;;;;;;;14.38;9.43;;;;;;;;;;8243481;28;20371;-75
2021/04/16 16:26:59;;;;;;;23.02;13.00;;;;;;;;;;8258554;28;20456;-76
2021/04/16 16:31:04;;;;;;;31.10;16.15;;;;;;;;;;8259319;28;20368;-76
2021/04/16 16:35:19;;;;;;;19.77;11.27;;;;;;;;;;8259750;28;20397;-76
2021/04/16 16:39:25;;;;;;;21.10;9.60;;;;;;;;;;8261532;28;20448;-77
2021/04/16 16:43:35;;;;;;;16.63;9.73;;;;;;;;;;8258290;28;20357;-76
2021/04/16 16:47:44;;;;;;;18.48;8.45;;;;;;;;;;8241770;28;20383;-74
2021/04/16 16:51:54;;;;;;;14.18;8.05;;;;;;;;;;8257702;28;20379;-74
2021/04/16 16:55:58;;;;;;;12.77;7.53;;;;;;;;;;8241008;28;20485;-75
2021/04/16 17:00:10;;;;;;;13.98;7.93;;;;;;;;;;8238972;28;20415;-74
2021/04/16 17:04:14;;;;;;;13.40;7.57;;;;;;;;;;8258370;28;20340;-75
2021/04/16 17:08:20;;;;;;;14.27;6.43;;;;;;;;;;8257161;28;20048;-76
2021/04/16 17:12:27;;;;;;;10.02;6.00;;;;;;;;;;8258344;28;20052;-74
2021/04/16 17:16:32;;;;;;;9.98;5.50;;;;;;;;;;8240602;28;20071;-74
2021/04/16 17:20:39;;;;;;;14.48;7.15;;;;;;;;;;8258476;28;20468;-75
2021/04/16 17:24:44;;;;;;;9.35;6.22;;;;;;;;;;8259253;28;20419;-75
2021/04/16 17:28:48;;;;;;;12.10;6.90;;;;;;;;;;8258311;28;20598;-76
2021/04/16 17:32:55;;;;;;;16.92;7.75;;;;;;;;;;8256344;28;20369;-75
2021/04/16 17:37:06;;;;;;;17.33;9.05;;;;;;;;;;8258688;28;20475;-75
2021/04/16 17:41:13;;;;;;;19.52;11.10;;;;;;;;;;8263467;28;20053;-74
2021/04/16 17:45:26;;;;;;;18.60;10.88;;;;;;;;;;8264495;28;20083;-75
2021/04/16 17:49:32;;;;;;;31.73;13.88;;;;;;;;;;8263380;28;20083;-75
2021/04/16 17:53:37;;;;;;;26.42;14.43;;;;;;;;;;8265949;28;20471;-75
2021/04/16 17:57:43;;;;;;;26.77;11.95;;;;;;;;;;8263869;28;20524;-75
2021/04/16 18:01:50;;;;;;;69.35;26.17;;;;;;;;;;8264039;28;20476;-74
2021/04/16 18:05:57;;;;;;;32.58;14.32;;;;;;;;;;8262913;28;20370;-75
2021/04/16 18:10:06;;;;;;;26.23;11.17;;;;;;;;;;8246272;28;20502;-75
2021/04/16 18:14:12;;;;;;;15.57;10.13;;;;;;;;;;8263447;28;20452;-75
2021/04/16 18:18:18;;;;;;;43.72;15.70;;;;;;;;;;8263622;28;20455;-76
2021/04/16 18:22:41;;;;;;;45.10;16.17;;;;;;;;;;8262276;28;20482;-75
2021/04/16 18:26:47;;;;;;;28.60;12.80;;;;;;;;;;8261592;28;20459;-75
2021/04/16 18:30:56;;;;;;;22.27;10.82;;;;;;;;;;8244282;28;20387;-76
2021/04/16 18:35:06;;;;;;;22.98;9.68;;;;;;;;;;8262888;28;20379;-75
2021/04/16 18:39:46;;;;;;;29.95;10.70;;;;;;;;;;8261443;28;20371;-77
2021/04/16 18:43:58;;;;;;;19.55;9.10;;;;;;;;;;8246780;28;20061;-75
2021/04/16 18:48:10;;;;;;;28.67;12.60;;;;;;;;;;8227124;28;20694;-75
2021/04/16 18:52:43;;;;;;;21.10;8.20;;;;;;;;;;8263499;28;20056;-75
2021/04/16 18:56:58;;;;;;;15.88;8.52;;;;;;;;;;8244495;28;20083;-75
2021/04/16 19:01:12;;;;;;;15.77;7.82;;;;;;;;;;8256528;28;20620;-75
2021/04/16 19:05:18;;;;;;;23.13;11.35;;;;;;;;;;8262298;28;20119;-75
2021/04/16 19:09:29;;;;;;;28.25;12.05;;;;;;;;;;8261283;28;20468;-75
2021/04/16 19:13:34;;;;;;;11.68;6.65;;;;;;;;;;8263038;28;20420;-75
2021/04/16 19:17:41;;;;;;;14.57;7.83;;;;;;;;;;8262777;28;20166;-75
2021/04/16 19:22:00;;;;;;;23.20;11.52;;;;;;;;;;8260457;28;20472;-75
2021/04/16 19:26:14;;;;;;;;;;;;;;;;;;8261651;28;20075;-76
2021/04/16 19:30:35;;;;;;;24.48;11.80;;;;;;;;;;8259150;28;20558;-75
2021/04/16 19:34:41;;;;;;;31.48;11.00;;;;;;;;;;8256059;28;20067;-75
2021/04/16 19:38:48;;;;;;;21.65;8.00;;;;;;;;;;8257236;28;20084;-75
2021/04/16 19:42:53;;;;;;;15.05;7.32;;;;;;;;;;8259252;28;20049;-75
2021/04/16 19:47:00;;;;;;;11.02;6.38;;;;;;;;;;8258577;28;20620;-75
2021/04/16 20:17:45;;;;;;;10.23;6.05;;;;;;;;;;8243971;28;20554;-75
2021/04/16 20:21:52;;;;;;;13.27;5.70;;;;;;;;;;8258206;28;20360;-75
2021/04/16 20:26:01;;;;;;;13.00;5.72;;;;;;;;;;8260394;28;20083;-75
2021/04/16 20:30:11;;;;;;;8.32;4.13;;;;;;;;;;8258333;28;20380;-75
2021/04/16 20:34:26;;;;;;;8.90;4.38;;;;;;;;;;8260053;28;20337;-75
2021/04/16 20:38:31;;;;;;;9.35;4.18;;;;;;;;;;8258883;28;20490;-75
2021/04/16 20:42:36;;;;;;;15.10;5.45;;;;;;;;;;8259739;28;20402;-75
2021/04/16 20:46:53;;;;;;;40.40;12.93;;;;;;;;;;8258448;28;20474;-75
2021/04/16 20:50:59;;;;;;;7.43;5.45;;;;;;;;;;8257514;28;20045;-76
2021/04/16 20:55:11;;;;;;;7.97;4.78;;;;;;;;;;8241279;28;20360;-75
2021/04/16 20:59:16;;;;;;;13.75;6.93;;;;;;;;;;8258196;28;20403;-75
2021/04/16 21:03:33;;;;;;;11.13;4.57;;;;;;;;;;8258655;28;20075;-75
2021/04/16 21:07:38;;;;;;;8.18;4.57;;;;;;;;;;8241769;28;20352;-75
2021/04/16 21:11:44;;;;;;;18.60;6.28;;;;;;;;;;8257717;28;20456;-75
2021/04/16 21:15:50;;;;;;;17.35;6.70;;;;;;;;;;8258488;28;20056;-75
2021/04/16 21:19:56;;;;;;;14.15;6.50;;;;;;;;;;8240174;28;20495;-76
2021/04/16 21:24:17;;;;;;;9.80;4.68;;;;;;;;;;8258927;28;20482;-75
2021/04/16 21:28:21;;;;;;;15.25;6.13;;;;;;;;;;8240391;28;20482;-76
2021/04/16 21:33:05;;;;;;;13.93;6.72;;;;;;;;;;8258181;28;20361;-75
2021/04/16 21:37:17;;;;;;;15.00;8.02;;;;;;;;;;8103297;28;20366;-75
2021/04/16 21:41:34;;;;;;;14.13;7.18;;;;;;;;;;8092528;29;20451;-75
2021/04/16 21:45:48;;;;;;;13.63;6.43;;;;;;;;;;8219241;28;20383;-76
2021/04/16 21:49:54;;;;;;;21.67;9.20;;;;;;;;;;8240473;28;20057;-75
2021/04/16 21:54:04;;;;;;;6.82;4.78;;;;;;;;;;8256864;28;20478;-75
2021/04/16 21:58:08;;;;;;;;;;;;;;;;;;8256317;28;20472;-76
2021/04/16 22:02:28;;;;;;;41.78;13.57;;;;;;;;;;8257694;28;20315;-75
2021/04/16 22:06:51;;;;;;;28.95;10.30;;;;;;;;;;8256072;28;20517;-75
2021/04/16 22:11:11;;;;;;;39.03;11.98;;;;;;;;;;8240761;28;20353;-75
2021/04/16 22:15:35;;;;;;;15.93;6.20;;;;;;;;;;8256191;28;20502;-77
2021/04/16 22:19:46;;;;;;;17.98;7.18;;;;;;;;;;8255072;28;20394;-76
2021/04/16 22:23:50;;;;;;;10.65;6.18;;;;;;;;;;8257402;28;20371;-76
2021/04/16 22:28:27;;;;;;;10.50;5.85;;;;;;;;;;8245225;28;20445;-76
2021/04/16 22:32:33;;;;;;;8.93;4.75;;;;;;;;;;8246969;28;20452;-76
2021/04/16 22:36:44;;;;;;;;;;;;;;;;;;8263430;28;20452;-77
2021/04/16 22:40:50;;;;;;;11.30;6.43;;;;;;;;;;8245607;28;20351;-76
2021/04/16 22:45:24;;;;;;;16.65;7.10;;;;;;;;;;8261510;28;20057;-77
2021/04/16 22:49:35;;;;;;;12.70;7.28;;;;;;;;;;8247144;28;20048;-76
2021/04/16 22:53:42;;;;;;;15.05;7.53;;;;;;;;;;8244433;28;20040;-75
2021/04/16 22:57:46;;;;;;;13.82;6.60;;;;;;;;;;8243881;28;20056;-76
2021/04/16 23:01:59;;;;;;;14.75;7.90;;;;;;;;;;8261542;28;20432;-75
2021/04/16 23:06:19;;;;;;;11.70;6.85;;;;;;;;;;8262666;28;20410;-76
2021/04/16 23:10:36;;;;;;;16.52;9.13;;;;;;;;;;8260646;28;20456;-76
2021/04/16 23:14:41;;;;;;;14.97;8.67;;;;;;;;;;8260460;28;20387;-76
2021/04/16 23:18:46;;;;;;;13.73;7.85;;;;;;;;;;8262762;28;20490;-76
2021/04/16 23:22:59;;;;;;;17.88;8.68;;;;;;;;;;8260577;28;20364;-76
2021/04/16 23:27:08;;;;;;;16.67;8.80;;;;;;;;;;8244973;28;20053;-76
2021/04/16 23:31:57;;;;;;;17.48;10.73;;;;;;;;;;8260650;28;20080;-76
2021/04/16 23:36:01;;;;;;;;;;;;;;;;;;8245097;28;20368;-76
2021/04/16 23:40:07;;;;;;;12.85;8.07;;;;;;;;;;8260552;28;20387;-76
2021/04/16 23:44:12;;;;;;;17.60;7.82;;;;;;;;;;8241422;28;20432;-76
2021/04/16 23:48:16;;;;;;;11.98;7.63;;;;;;;;;;8243045;28;20072;-76
2021/04/16 23:52:25;;;;;;;13.38;7.72;;;;;;;;;;8261178;28;20349;-75
2021/04/16 23:56:29;;;;;;;17.48;8.27;;;;;;;;;;8259139;28;20455;-76
